createdAt,value
2022-11-06T00:00:31.876Z,9.38
2022-11-06T00:03:02.082Z,10.15
2022-11-06T00:05:47.969Z,12.00
2022-11-06T00:08:16.580Z,12.32
2022-11-06T00:10:44.724Z,14.32
2022-11-06T00:13:12.721Z,10.38
2022-11-06T00:15:40.822Z,13.02
2022-11-06T00:18:10.444Z,11.43
2022-11-06T00:20:38.814Z,10.52
2022-11-06T00:23:06.853Z,10.95
2022-11-06T00:25:34.911Z,9.88
2022-11-06T00:28:02.849Z,11.80
2022-11-06T00:30:30.814Z,11.77
2022-11-06T00:32:59.239Z,11.35
2022-11-06T00:35:28.613Z,11.85
2022-11-06T00:37:57.200Z,10.63
2022-11-06T00:40:25.174Z,12.48
2022-11-06T00:42:57.326Z,11.38
2022-11-06T00:45:26.211Z,10.23
2022-11-06T00:47:54.184Z,9.25
2022-11-06T00:50:26.540Z,10.93
2022-11-06T00:52:56.285Z,10.85
2022-11-06T00:55:24.358Z,11.32
2022-11-06T00:57:52.526Z,10.70
2022-11-06T01:00:21.013Z,11.02
2022-11-06T01:02:49.244Z,9.82
2022-11-06T01:05:17.877Z,9.68
2022-11-06T01:07:45.803Z,9.70
2022-11-06T01:10:15.189Z,8.93
2022-11-06T01:12:43.418Z,10.13
2022-11-06T01:15:13.103Z,11.25
2022-11-06T01:17:41.061Z,8.63
2022-11-06T01:20:10.181Z,7.53
2022-11-06T01:22:38.326Z,8.13
2022-11-06T01:25:07.609Z,8.57
2022-11-06T01:27:37.333Z,9.57
2022-11-06T01:30:06.435Z,8.70
2022-11-06T01:32:35.639Z,10.25
2022-11-06T01:35:04.107Z,12.63
2022-11-06T01:37:32.100Z,9.52
2022-11-06T01:40:00.070Z,9.23
2022-11-06T01:42:28.062Z,9.68
2022-11-06T01:45:30.713Z,9.30
2022-11-06T01:47:58.815Z,10.98
2022-11-06T01:50:27.979Z,9.82
2022-11-06T01:52:56.826Z,11.15
2022-11-06T01:55:27.507Z,11.02
2022-11-06T01:57:56.783Z,13.07
2022-11-06T02:00:24.848Z,9.20
2022-11-06T02:02:54.423Z,10.57
2022-11-06T02:05:22.487Z,10.88
2022-11-06T02:07:50.578Z,9.75
2022-11-06T02:10:18.879Z,10.07
2022-11-06T02:12:58.014Z,10.63
2022-11-06T02:15:35.496Z,8.98
2022-11-06T02:18:18.081Z,8.35
2022-11-06T02:20:57.172Z,6.33
2022-11-06T02:23:48.952Z,7.72
2022-11-06T02:26:33.520Z,8.10
2022-11-06T02:29:08.980Z,7.20
2022-11-06T02:31:42.423Z,6.57
2022-11-06T02:34:16.384Z,7.32
2022-11-06T02:36:52.552Z,6.68
2022-11-06T02:39:23.338Z,7.90
2022-11-06T02:41:53.678Z,5.90
2022-11-06T02:44:27.506Z,5.90
2022-11-06T02:46:59.078Z,6.00
2022-11-06T02:49:33.325Z,6.35
2022-11-06T02:52:08.021Z,6.95
2022-11-06T02:54:39.738Z,6.40
2022-11-06T02:57:15.505Z,5.60
2022-11-06T02:59:51.213Z,7.72
2022-11-06T03:02:24.264Z,7.05
2022-11-06T03:04:59.362Z,7.18
2022-11-06T03:07:35.648Z,6.60
2022-11-06T03:10:04.118Z,6.43
2022-11-06T03:12:34.869Z,5.32
2022-11-06T03:15:15.847Z,7.43
2022-11-06T03:17:48.042Z,7.13
2022-11-06T03:20:22.534Z,5.40
2022-11-06T03:22:55.979Z,6.55
2022-11-06T03:25:28.289Z,10.57
2022-11-06T03:28:04.409Z,6.77
2022-11-06T03:30:37.504Z,7.03
2022-11-06T03:33:12.663Z,6.13
2022-11-06T03:35:45.327Z,6.55
2022-11-06T03:38:18.064Z,5.00
2022-11-06T03:40:50.962Z,6.15
2022-11-06T03:43:22.975Z,5.97
2022-11-06T03:45:54.599Z,5.95
2022-11-06T03:48:29.456Z,6.28
2022-11-06T03:51:03.077Z,5.13
2022-11-06T03:53:37.749Z,4.80
2022-11-06T03:56:11.535Z,5.78
2022-11-06T03:58:43.843Z,6.65
2022-11-06T04:01:16.135Z,4.60
2022-11-06T04:03:48.963Z,6.30
2022-11-06T04:06:20.996Z,4.75
2022-11-06T04:09:08.590Z,4.53
2022-11-06T04:11:56.546Z,4.57
2022-11-06T04:14:28.119Z,5.32
2022-11-06T04:17:02.330Z,5.10
2022-11-06T04:19:30.287Z,5.40
2022-11-06T04:22:19.153Z,5.50
2022-11-06T04:25:18.678Z,6.03
2022-11-06T04:28:03.451Z,6.30
2022-11-06T04:33:08.910Z,6.65
2022-11-06T04:35:52.036Z,5.80
2022-11-06T04:38:27.869Z,5.97
2022-11-06T04:41:04.634Z,4.97
2022-11-06T04:43:38.262Z,5.50
2022-11-06T04:46:09.271Z,5.50
2022-11-06T04:48:39.555Z,5.30
2022-11-06T04:51:11.421Z,6.40
2022-11-06T04:53:40.660Z,5.50
2022-11-06T04:56:13.029Z,7.00
2022-11-06T04:58:41.177Z,5.17
2022-11-06T05:01:10.061Z,6.95
2022-11-06T05:03:39.347Z,5.68
2022-11-06T05:06:07.830Z,5.18
2022-11-06T05:08:35.778Z,5.68
2022-11-06T05:11:03.742Z,5.50
2022-11-06T05:13:31.709Z,5.22
2022-11-06T05:16:00.577Z,4.95
2022-11-06T05:18:29.324Z,5.45
2022-11-06T05:21:19.807Z,5.70
2022-11-06T05:23:47.827Z,5.15
2022-11-06T05:26:15.993Z,5.35
2022-11-06T05:28:43.929Z,4.85
2022-11-06T05:31:11.951Z,4.95
2022-11-06T05:33:39.929Z,5.55
2022-11-06T05:36:10.046Z,4.25
2022-11-06T05:38:37.989Z,5.30
2022-11-06T05:41:06.302Z,4.82
2022-11-06T05:43:34.289Z,6.15
2022-11-06T05:46:02.243Z,6.10
2022-11-06T05:48:30.898Z,5.78
2022-11-06T05:51:02.006Z,6.03
2022-11-06T05:53:33.686Z,6.18
2022-11-06T05:56:01.795Z,6.22
2022-11-06T05:58:30.202Z,6.15
2022-11-06T06:00:59.048Z,6.07
2022-11-06T06:03:27.686Z,6.50
2022-11-06T06:05:55.674Z,7.30
2022-11-06T06:08:23.653Z,9.68
2022-11-06T06:10:53.018Z,10.52
2022-11-06T06:13:20.968Z,12.93
2022-11-06T06:15:57.012Z,10.27
2022-11-06T06:18:25.315Z,9.45
2022-11-06T06:20:53.284Z,10.98
2022-11-06T06:23:21.223Z,7.80
2022-11-06T06:25:49.147Z,8.68
2022-11-06T06:28:18.441Z,7.63
2022-11-06T06:30:46.399Z,6.78
2022-11-06T06:33:14.360Z,6.95
2022-11-06T06:35:42.394Z,6.45
2022-11-06T06:38:11.984Z,9.73
2022-11-06T06:40:40.198Z,7.38
2022-11-06T06:43:08.145Z,8.65
2022-11-06T06:45:37.472Z,8.00
2022-11-06T06:48:06.117Z,8.90
2022-11-06T06:50:34.346Z,7.28
2022-11-06T06:53:02.409Z,11.75
2022-11-06T06:55:30.373Z,13.52
2022-11-06T06:57:59.223Z,10.05
2022-11-06T07:00:27.777Z,12.15
2022-11-06T07:02:57.101Z,9.70
2022-11-06T07:05:25.478Z,11.40
2022-11-06T07:07:53.383Z,9.57
2022-11-06T07:10:21.620Z,8.00
2022-11-06T07:12:49.778Z,12.27
2022-11-06T07:15:18.010Z,8.20
2022-11-06T07:17:46.044Z,6.90
2022-11-06T07:20:15.343Z,8.68
2022-11-06T07:22:43.431Z,6.38
2022-11-06T07:25:11.917Z,8.30
2022-11-06T07:27:41.375Z,6.97
2022-11-06T07:30:10.551Z,7.80
2022-11-06T07:32:38.500Z,8.30
2022-11-06T07:35:07.504Z,7.28
2022-11-06T07:37:37.057Z,8.07
2022-11-06T07:40:07.198Z,6.47
2022-11-06T07:42:38.271Z,7.57
2022-11-06T07:45:10.068Z,7.22
2022-11-06T07:47:38.019Z,6.53
2022-11-06T07:50:06.785Z,7.93
2022-11-06T07:52:36.346Z,6.85
2022-11-06T07:55:04.567Z,9.30
2022-11-06T07:57:35.934Z,7.18
2022-11-06T08:00:05.036Z,6.25
2022-11-06T08:02:40.659Z,6.93
2022-11-06T08:05:09.539Z,5.78
2022-11-06T08:07:58.213Z,7.38
2022-11-06T08:10:26.185Z,6.25
2022-11-06T08:12:54.119Z,7.05
2022-11-06T08:15:22.016Z,7.20
2022-11-06T08:17:49.919Z,6.72
2022-11-06T08:20:18.031Z,6.90
2022-11-06T08:22:47.496Z,6.30
2022-11-06T08:25:15.514Z,6.95
2022-11-06T08:27:43.445Z,5.97
2022-11-06T08:30:13.043Z,6.95
2022-11-06T08:32:40.959Z,6.22
2022-11-06T08:35:10.094Z,6.25
2022-11-06T08:37:38.127Z,6.57
2022-11-06T08:40:09.064Z,6.93
2022-11-06T08:42:37.413Z,5.00
2022-11-06T08:45:06.370Z,6.38
2022-11-06T08:47:34.325Z,5.50
2022-11-06T08:50:02.256Z,5.13
2022-11-06T08:52:34.108Z,5.15
2022-11-06T08:55:02.568Z,4.47
2022-11-06T08:57:31.805Z,3.85
2022-11-06T08:59:59.726Z,5.13
2022-11-06T09:02:27.756Z,5.13
2022-11-06T09:04:55.784Z,4.68
2022-11-06T09:07:23.719Z,4.53
2022-11-06T09:09:51.685Z,5.07
2022-11-06T09:12:19.583Z,4.43
2022-11-06T09:14:48.890Z,5.13
2022-11-06T09:17:18.488Z,4.97
2022-11-06T09:19:46.398Z,5.53
2022-11-06T09:22:14.470Z,5.03
2022-11-06T09:25:02.433Z,4.20
2022-11-06T09:27:30.768Z,5.82
2022-11-06T09:30:00.135Z,4.07
2022-11-06T09:32:28.057Z,4.63
2022-11-06T09:34:55.937Z,5.18
2022-11-06T09:37:23.863Z,3.53
2022-11-06T09:39:51.862Z,3.92
2022-11-06T09:42:33.858Z,3.25
2022-11-06T09:45:09.329Z,3.90
2022-11-06T09:47:41.923Z,4.22
2022-11-06T09:50:16.010Z,6.85
2022-11-06T09:52:50.674Z,6.40
2022-11-06T09:55:25.642Z,4.15
2022-11-06T09:57:57.058Z,4.78
2022-11-06T10:00:26.551Z,5.75
2022-11-06T10:02:57.743Z,5.18
2022-11-06T10:05:29.511Z,4.57
2022-11-06T10:08:00.712Z,4.15
2022-11-06T10:10:35.744Z,3.72
2022-11-06T10:13:17.829Z,3.33
2022-11-06T10:15:58.455Z,4.10
2022-11-06T10:18:35.451Z,2.67
2022-11-06T10:21:12.699Z,3.15
2022-11-06T10:23:53.353Z,3.05
2022-11-06T10:26:36.711Z,2.20
2022-11-06T10:29:41.181Z,3.35
2022-11-06T10:34:59.431Z,2.80
2022-11-06T10:37:30.994Z,3.03
2022-11-06T10:40:01.409Z,2.63
2022-11-06T10:42:52.230Z,2.45
2022-11-06T10:45:21.249Z,2.75
2022-11-06T10:47:55.114Z,2.90
2022-11-06T10:50:32.671Z,2.60
2022-11-06T10:53:08.004Z,2.92
2022-11-06T10:55:49.613Z,3.90
2022-11-06T10:58:23.281Z,3.58
2022-11-06T11:01:02.203Z,3.92
2022-11-06T11:03:33.849Z,3.50
2022-11-06T11:06:04.105Z,2.80
2022-11-06T11:08:43.025Z,2.90
2022-11-06T11:11:24.859Z,3.17
2022-11-06T11:14:15.208Z,3.50
2022-11-06T11:16:46.067Z,2.63
2022-11-06T11:19:25.513Z,4.40
2022-11-06T11:21:55.280Z,5.15
2022-11-06T11:24:23.260Z,5.50
2022-11-06T11:26:53.222Z,5.43
2022-11-06T11:29:26.314Z,6.18
2022-11-06T11:31:58.034Z,5.88
2022-11-06T11:34:30.160Z,5.57
2022-11-06T11:37:01.725Z,6.30
2022-11-06T11:39:33.498Z,5.40
2022-11-06T11:42:23.785Z,5.30
2022-11-06T11:45:24.050Z,4.75
2022-11-06T11:47:53.084Z,4.57
2022-11-06T11:50:32.982Z,4.55
2022-11-06T11:53:10.250Z,4.60
2022-11-06T11:55:42.692Z,3.70
2022-11-06T11:58:21.241Z,4.00
2022-11-06T12:00:56.766Z,3.50
2022-11-06T12:03:28.594Z,4.05
2022-11-06T12:06:07.427Z,3.90
2022-11-06T12:08:35.719Z,2.85
2022-11-06T12:11:05.467Z,3.65
2022-11-06T12:13:33.452Z,3.78
2022-11-06T12:16:05.364Z,3.08
2022-11-06T12:18:36.527Z,3.17
2022-11-06T12:21:07.380Z,4.38
2022-11-06T12:23:41.559Z,3.67
2022-11-06T12:26:26.057Z,3.00
2022-11-06T12:29:19.453Z,3.92
2022-11-06T12:31:59.030Z,3.15
2022-11-06T12:34:34.865Z,3.38
2022-11-06T12:37:18.564Z,3.47
2022-11-06T12:42:21.985Z,2.95
2022-11-06T12:44:50.025Z,2.78
2022-11-06T12:47:30.187Z,3.30
2022-11-06T12:50:29.264Z,2.90
2022-11-06T12:53:13.218Z,2.55
2022-11-06T12:55:50.407Z,2.63
2022-11-06T12:58:50.565Z,3.08
2022-11-06T13:01:26.359Z,2.75
2022-11-06T13:04:06.658Z,2.92
2022-11-06T13:07:03.688Z,3.85
2022-11-06T13:09:38.523Z,4.40
2022-11-06T13:12:17.071Z,2.72
2022-11-06T13:14:54.627Z,2.72
2022-11-06T13:17:29.079Z,2.55
2022-11-06T13:20:04.458Z,2.95
2022-11-06T13:22:37.737Z,2.92
2022-11-06T13:25:13.918Z,3.15
2022-11-06T13:27:48.582Z,3.00
2022-11-06T13:30:20.158Z,3.50
2022-11-06T13:33:00.191Z,5.53
2022-11-06T13:35:30.044Z,3.20
2022-11-06T13:37:58.581Z,2.50
2022-11-06T13:40:31.936Z,2.55
2022-11-06T13:43:06.567Z,3.50
2022-11-06T13:45:42.793Z,3.20
2022-11-06T13:48:34.581Z,2.38
2022-11-06T13:51:13.527Z,2.58
2022-11-06T13:53:52.839Z,2.53
2022-11-06T13:56:44.621Z,2.08
2022-11-06T13:59:34.329Z,3.13
2022-11-06T14:02:17.629Z,2.38
2022-11-06T14:05:29.042Z,2.50
2022-11-06T14:08:00.002Z,1.70
2022-11-06T14:10:34.118Z,2.42
2022-11-06T14:13:03.043Z,2.58
2022-11-06T14:15:35.691Z,2.33
2022-11-06T14:18:03.806Z,1.95
2022-11-06T14:20:35.439Z,2.40
2022-11-06T14:23:40.660Z,2.97
2022-11-06T14:26:12.868Z,2.90
2022-11-06T14:28:43.287Z,2.30
2022-11-06T14:31:15.079Z,2.83
2022-11-06T14:34:02.125Z,2.72
2022-11-06T14:36:34.044Z,2.67
2022-11-06T14:39:03.760Z,2.92
2022-11-06T14:42:01.028Z,2.47
2022-11-06T14:44:50.449Z,2.42
2022-11-06T14:47:40.279Z,4.70
2022-11-06T14:50:25.557Z,2.60
2022-11-06T14:52:57.621Z,2.40
2022-11-06T14:55:30.715Z,3.22
2022-11-06T14:58:13.277Z,2.65
2022-11-06T15:00:48.887Z,2.70
2022-11-06T15:03:25.508Z,4.85
2022-11-06T15:06:00.540Z,3.83
2022-11-06T15:08:54.632Z,3.30
2022-11-06T15:11:50.763Z,3.30
2022-11-06T15:15:04.224Z,3.63
2022-11-06T15:17:37.541Z,11.35
2022-11-06T15:20:24.410Z,5.78
2022-11-06T15:23:16.233Z,7.72
2022-11-06T15:25:52.239Z,17.85
2022-11-06T15:28:24.566Z,8.68
2022-11-06T15:30:58.494Z,5.57
2022-11-06T15:33:32.371Z,4.20
2022-11-06T15:36:05.547Z,3.40
2022-11-06T15:38:40.644Z,4.25
2022-11-06T15:41:14.209Z,10.10
2022-11-06T15:43:45.920Z,7.57
2022-11-06T15:46:22.791Z,6.97
2022-11-06T15:49:08.484Z,6.28
2022-11-06T15:51:40.140Z,6.53
2022-11-06T15:54:14.325Z,6.97
2022-11-06T15:56:42.801Z,7.47
2022-11-06T15:59:13.245Z,5.13
2022-11-06T16:01:42.077Z,7.95
2022-11-06T16:04:19.789Z,9.77
2022-11-06T16:06:48.521Z,8.38
2022-11-06T16:09:19.779Z,16.10
2022-11-06T16:11:50.967Z,21.95
2022-11-06T16:14:19.503Z,6.43
2022-11-06T16:16:49.985Z,5.35
2022-11-06T16:19:30.791Z,10.25
2022-11-06T16:22:03.215Z,7.90
2022-11-06T16:24:40.030Z,9.83
2022-11-06T16:27:08.886Z,6.45
2022-11-06T16:29:37.520Z,10.13
2022-11-06T16:32:08.061Z,10.38
2022-11-06T16:34:44.074Z,7.45
2022-11-06T16:37:37.929Z,8.38
2022-11-06T16:40:23.231Z,6.68
2022-11-06T16:43:02.547Z,8.68
2022-11-06T16:45:31.323Z,6.55
2022-11-06T16:48:25.014Z,7.45
2022-11-06T16:50:56.668Z,7.80
2022-11-06T16:53:28.507Z,7.80
2022-11-06T16:55:58.907Z,7.10
2022-11-06T16:58:28.661Z,9.70
2022-11-06T17:00:59.514Z,6.25
2022-11-06T17:03:30.780Z,8.10
2022-11-06T17:06:00.585Z,8.63
2022-11-06T17:08:32.652Z,6.57
2022-11-06T17:11:15.159Z,7.88
2022-11-06T17:13:44.861Z,7.40
2022-11-06T17:16:15.809Z,8.10
2022-11-06T17:18:44.076Z,9.20
2022-11-06T17:21:16.610Z,7.43
2022-11-06T17:23:46.197Z,8.68
2022-11-06T17:26:17.580Z,10.00
2022-11-06T17:28:45.926Z,10.93
2022-11-06T17:31:14.919Z,13.95
2022-11-06T17:33:43.745Z,11.30
2022-11-06T17:36:18.806Z,9.77
2022-11-06T17:38:47.079Z,10.90
2022-11-06T17:41:29.547Z,7.10
2022-11-06T17:43:58.170Z,22.25
2022-11-06T17:46:27.120Z,13.15
2022-11-06T17:48:55.369Z,13.50
2022-11-06T17:51:42.695Z,12.98
2022-11-06T17:54:11.093Z,12.75
2022-11-06T17:56:40.655Z,13.20
2022-11-06T17:59:09.684Z,10.80
2022-11-06T18:01:38.044Z,10.43
2022-11-06T18:04:07.234Z,11.20
2022-11-06T18:06:36.916Z,10.98
2022-11-06T18:09:08.139Z,12.40
2022-11-06T18:11:36.298Z,10.65
2022-11-06T18:14:04.259Z,11.38
2022-11-06T18:16:39.734Z,11.38
2022-11-06T18:19:12.755Z,9.65
2022-11-06T18:21:42.049Z,12.02
2022-11-06T18:24:10.026Z,11.10
2022-11-06T18:26:38.221Z,10.75
2022-11-06T18:29:07.362Z,10.27
2022-11-06T18:31:36.339Z,10.85
2022-11-06T18:34:05.458Z,10.95
2022-11-06T18:36:34.977Z,13.25
2022-11-06T18:39:06.594Z,10.95
2022-11-06T18:41:34.837Z,10.43
2022-11-06T18:44:03.336Z,11.82
2022-11-06T18:46:31.351Z,13.23
2022-11-06T18:48:59.359Z,7.97
2022-11-06T18:51:35.243Z,10.20
2022-11-06T18:54:07.524Z,11.18
2022-11-06T18:56:35.958Z,10.23
2022-11-06T18:59:04.810Z,9.63
2022-11-06T19:01:34.641Z,11.70
2022-11-06T19:04:04.643Z,13.07
2022-11-06T19:06:33.236Z,11.32
2022-11-06T19:09:01.330Z,12.15
2022-11-06T19:11:30.853Z,10.02
2022-11-06T19:13:58.826Z,10.32
2022-11-06T19:16:29.582Z,11.68
2022-11-06T19:21:30.128Z,10.30
2022-11-06T19:24:03.489Z,9.45
2022-11-06T19:26:35.221Z,9.63
2022-11-06T19:29:03.518Z,7.05
2022-11-06T19:31:33.025Z,8.73
2022-11-06T19:34:01.676Z,8.30
2022-11-06T19:36:30.576Z,7.90
2022-11-06T19:38:59.163Z,6.90
2022-11-06T19:41:27.543Z,6.47
2022-11-06T19:43:56.980Z,8.35
2022-11-06T19:46:29.759Z,4.68
2022-11-06T19:49:01.792Z,5.82
2022-11-06T19:51:30.663Z,4.82
2022-11-06T19:53:58.594Z,5.07
2022-11-06T19:56:26.653Z,4.05
2022-11-06T19:58:55.921Z,3.28
2022-11-06T20:01:24.015Z,4.20
2022-11-06T20:03:52.087Z,4.10
2022-11-06T20:06:19.987Z,3.40
2022-11-06T20:08:49.183Z,4.22
2022-11-06T20:11:18.041Z,5.25
2022-11-06T20:13:46.824Z,3.97
2022-11-06T20:16:17.931Z,3.88
2022-11-06T20:18:50.814Z,3.95
2022-11-06T20:21:18.974Z,4.35
2022-11-06T20:23:46.912Z,5.00
2022-11-06T20:26:14.949Z,6.40
2022-11-06T20:28:43.209Z,6.47
2022-11-06T20:31:12.691Z,4.55
2022-11-06T20:33:42.040Z,4.63
2022-11-06T20:36:18.578Z,4.57
2022-11-06T20:39:11.767Z,4.78
2022-11-06T20:41:39.729Z,4.55
2022-11-06T20:44:07.678Z,4.95
2022-11-06T20:46:35.591Z,4.10
2022-11-06T20:49:04.933Z,4.93
2022-11-06T20:51:42.933Z,4.30
2022-11-06T20:54:21.125Z,4.38
2022-11-06T20:56:50.716Z,4.53
2022-11-06T20:59:18.775Z,4.82
2022-11-06T21:01:47.192Z,6.13
2022-11-06T21:04:16.868Z,4.80
2022-11-06T21:06:45.718Z,3.63
2022-11-06T21:09:13.700Z,4.70
2022-11-06T21:11:41.721Z,7.75
2022-11-06T21:14:09.687Z,5.25
2022-11-06T21:16:38.162Z,3.58
2022-11-06T21:19:06.718Z,3.20
2022-11-06T21:21:37.748Z,3.47
2022-11-06T21:24:06.670Z,2.55
2022-11-06T21:26:36.896Z,3.63
2022-11-06T21:29:06.370Z,3.60
2022-11-06T21:31:34.565Z,1.63
2022-11-06T21:34:04.183Z,2.60
2022-11-06T21:36:33.424Z,1.88
2022-11-06T21:39:04.874Z,1.60
2022-11-06T21:41:34.448Z,1.45
2022-11-06T21:44:02.634Z,2.53
2022-11-06T21:46:30.795Z,2.00
2022-11-06T21:48:59.142Z,2.08
2022-11-06T21:51:29.159Z,1.20
2022-11-06T21:54:15.194Z,1.67
2022-11-06T21:56:45.360Z,1.75
2022-11-06T21:59:15.150Z,1.50
2022-11-06T22:01:43.383Z,2.13
2022-11-06T22:04:12.415Z,1.00
2022-11-06T22:06:42.105Z,0.70
2022-11-06T22:09:11.433Z,1.38
2022-11-06T22:11:40.965Z,1.35
2022-11-06T22:14:12.849Z,1.42
2022-11-06T22:16:43.551Z,1.58
2022-11-06T22:19:13.500Z,1.17
2022-11-06T22:21:41.969Z,1.35
2022-11-06T22:24:12.520Z,1.30
2022-11-06T22:26:40.781Z,0.90
2022-11-06T22:29:13.206Z,1.00
2022-11-06T22:31:41.652Z,0.95
2022-11-06T22:34:10.896Z,1.00
2022-11-06T22:36:39.089Z,1.90
2022-11-06T22:39:08.876Z,1.98
2022-11-06T22:41:37.189Z,1.25
2022-11-06T22:44:06.105Z,1.20
2022-11-06T22:46:36.025Z,1.45
2022-11-06T22:49:04.931Z,2.05
2022-11-06T22:51:33.613Z,2.15
2022-11-06T22:54:02.655Z,2.20
2022-11-06T22:56:31.969Z,0.90
2022-11-06T22:59:02.839Z,1.00
2022-11-06T23:01:36.154Z,1.30
2022-11-06T23:04:14.924Z,0.85
2022-11-06T23:06:44.084Z,0.60
2022-11-06T23:09:12.043Z,1.15
2022-11-06T23:11:39.996Z,1.73
2022-11-06T23:14:09.412Z,1.85
2022-11-06T23:16:55.542Z,3.28
2022-11-06T23:19:25.666Z,2.63
2022-11-06T23:22:13.752Z,2.05
2022-11-06T23:24:41.700Z,1.23
2022-11-06T23:27:10.652Z,1.00
2022-11-06T23:29:38.848Z,1.02
2022-11-06T23:32:07.240Z,1.90
2022-11-06T23:34:36.543Z,1.63
2022-11-06T23:37:04.882Z,1.33
2022-11-06T23:39:32.840Z,0.90
2022-11-06T23:42:00.749Z,1.25
2022-11-06T23:44:46.239Z,1.10
2022-11-06T23:47:14.148Z,1.10
2022-11-06T23:49:43.478Z,1.38
2022-11-06T23:52:11.450Z,1.65
2022-11-06T23:54:39.352Z,1.08
2022-11-06T23:57:08.942Z,1.48
2022-11-06T23:59:36.918Z,1.10
